This is the latest recevied weather packets stored in our database for station/object IZ1UQG-1. If no packets are shown the sender has not sent any weather packets the latest 10 day(s).
| Time | Temp. | Humidity | Pressure | Rain* | Wind** | Luminosity | Snow |
|---|---|---|---|---|---|---|---|
| 1777216754 | 31.67° C | 27% | 1014.3 hPa | 4.06 mm | - | - | - |
| 1777216454 | 31.67° C | 27% | 1014.4 hPa | 6.1 mm | - | - | - |
| 1777216154 | 31.67° C | 27% | 1014.4 hPa | 6.6 mm | - | - | - |
| 1777215854 | 31.11° C | 27% | 1014.4 hPa | 6.6 mm | - | - | - |
| 1777215554 | 31.67° C | 27% | 1014.5 hPa | 6.6 mm | - | - | - |
| 1777215254 | 31.67° C | 26% | 1014.4 hPa | 7.11 mm | - | - | - |
| 1777214954 | 31.11° C | 27% | 1014.5 hPa | 6.1 mm | - | - | - |
| 1777214654 | 31.11° C | 27% | 1014.5 hPa | 9.14 mm | - | - | - |
| 1777214354 | 31.11° C | 27% | 1014.5 hPa | 7.62 mm | - | - | - |
| 1777214054 | 31.67° C | 26% | 1014.3 hPa | 9.14 mm | - | - | - |
| 1777213754 | 31.67° C | 26% | 1014.6 hPa | 8.64 mm | - | - | - |
| 1777213454 | 31.67° C | 26% | 1014.4 hPa | 9.14 mm | - | - | - |
| 1777213154 | 31.67° C | 26% | 1014.5 hPa | 8.13 mm | - | - | - |
| 1777212854 | 31.11° C | 28% | 1014.6 hPa | 10.67 mm | - | - | - |
| 1777212554 | 31.11° C | 28% | 1014.6 hPa | 10.67 mm | - | - | - |
| 1777212254 | 31.11° C | 28% | 1014.5 hPa | 11.18 mm | - | - | - |
| 1777211954 | 31.11° C | 28% | 1014.6 hPa | 12.19 mm | - | - | - |
| 1777211654 | 30.56° C | 31% | 1014.6 hPa | 21.59 mm | - | - | - |
| 1777211354 | 31.11° C | 29% | 1014.5 hPa | 18.54 mm | - | - | - |
| 1777211054 | 31.11° C | 28% | 1014.6 hPa | 21.08 mm | - | - | - |
| 1777210754 | 31.67° C | 28% | 1014.6 hPa | 23.11 mm | - | - | - |
| 1777210454 | 31.11° C | 29% | 1014.9 hPa | 29.97 mm | - | - | - |
| 1777210154 | 31.11° C | 29% | 1014.8 hPa | 34.04 mm | - | - | - |
| 1777209854 | 31.11° C | 29% | 1014.6 hPa | 33.02 mm | - | - | - |
| 1777209554 | 31.67° C | 28% | 1014.8 hPa | 37.08 mm | - | - | - |
* Rain latest hour (hover to see other rain measurements)
** Current wind speed in m/s (hover to see current wind gust speed)